Time;durP1;ratioP1;P1;durP2;ratioP2;P2;SDS_P1;SDS_P2;PMS_P1;PMS_P2;Temp;Humidity;BMP_temperature;BMP_pressure;BME280_temperature;BME280_humidity;BME280_pressure;Samples;Min_cycle;Max_cycle;Signal;HPM_P1;HPM_P2
2023/11/03 00:01:49;;;;;;;0.05;0.05;;;20.30;53.00;;;;;;4995031;28;20218;-54
2023/11/03 00:04:20;;;;;;;0.00;0.00;;;20.30;53.00;;;;;;4995027;28;20670;-59
2023/11/03 00:06:50;;;;;;;0.10;0.10;;;20.30;53.00;;;;;;4993758;28;20206;-57
2023/11/03 00:09:23;;;;;;;0.00;0.00;;;20.30;53.00;;;;;;4995690;28;20193;-59
2023/11/03 00:11:55;;;;;;;0.00;0.00;;;20.30;53.00;;;;;;4994903;28;20210;-58
2023/11/03 00:14:27;;;;;;;0.00;0.00;;;20.30;53.00;;;;;;4994449;28;20267;-52
2023/11/03 00:16:57;;;;;;;0.00;0.00;;;20.30;53.00;;;;;;4994897;28;20240;-56
2023/11/03 00:19:28;;;;;;;0.00;0.00;;;20.30;53.00;;;;;;4994331;28;20251;-58
2023/11/03 00:21:59;;;;;;;0.00;0.00;;;20.30;53.00;;;;;;4994234;28;20277;-53
2023/11/03 00:24:29;;;;;;;0.00;0.00;;;20.30;53.00;;;;;;4993942;28;20201;-57
2023/11/03 00:27:02;;;;;;;0.10;0.10;;;20.30;53.10;;;;;;4994665;28;20261;-55
2023/11/03 00:29:32;;;;;;;0.05;0.05;;;20.30;53.10;;;;;;4994036;28;20251;-56
2023/11/03 00:32:03;;;;;;;0.00;0.00;;;20.30;53.10;;;;;;5027072;23;20232;-52
2023/11/03 00:34:33;;;;;;;0.03;0.03;;;20.30;53.20;;;;;;5013049;28;20201;-53
2023/11/03 00:37:04;;;;;;;0.00;0.00;;;20.30;53.20;;;;;;5012850;28;20224;-54
2023/11/03 00:39:34;;;;;;;0.00;0.00;;;20.30;53.20;;;;;;5013972;28;20200;-55
2023/11/03 00:42:07;;;;;;;0.00;0.00;;;20.30;53.20;;;;;;4997431;28;20263;-53
2023/11/03 00:44:38;;;;;;;0.10;0.10;;;20.30;53.30;;;;;;4993393;28;20275;-56
2023/11/03 00:47:10;;;;;;;0.10;0.10;;;20.30;53.30;;;;;;4994398;28;20654;-53
2023/11/03 00:49:41;;;;;;;0.00;0.00;;;20.30;53.30;;;;;;4989342;28;20233;-53
2023/11/03 00:52:11;;;;;;;0.00;0.00;;;20.30;53.30;;;;;;5010477;28;20217;-52
2023/11/03 00:54:42;;;;;;;0.08;0.08;;;20.30;53.30;;;;;;4998908;28;20201;-54
2023/11/03 00:57:14;;;;;;;0.00;0.00;;;20.30;53.30;;;;;;4994538;28;20295;-54
2023/11/03 00:59:45;;;;;;;0.10;0.10;;;20.30;53.30;;;;;;4995446;28;20197;-55
2023/11/03 01:02:17;;;;;;;0.05;0.05;;;20.30;53.30;;;;;;5002203;28;20217;-52
2023/11/03 01:04:48;;;;;;;0.10;0.10;;;20.40;53.40;;;;;;5000971;28;20675;-55
2023/11/03 01:07:18;;;;;;;0.10;0.10;;;20.30;53.40;;;;;;5010664;28;20255;-54
2023/11/03 01:09:49;;;;;;;0.00;0.00;;;20.40;53.40;;;;;;4999648;28;20224;-54
2023/11/03 01:12:21;;;;;;;0.00;0.00;;;20.40;53.50;;;;;;4993335;28;20288;-54
2023/11/03 01:14:52;;;;;;;0.00;0.00;;;20.30;53.50;;;;;;5006519;28;20189;-55
2023/11/03 01:17:24;;;;;;;0.00;0.00;;;20.40;53.50;;;;;;4997157;28;20791;-55
2023/11/03 01:19:55;;;;;;;0.00;0.00;;;20.30;53.50;;;;;;5001577;28;20193;-56
2023/11/03 01:22:25;;;;;;;0.00;0.00;;;20.40;53.50;;;;;;5005130;28;20737;-54
2023/11/03 01:24:56;;;;;;;0.10;0.10;;;20.40;53.50;;;;;;4993663;28;20198;-54
2023/11/03 01:27:28;;;;;;;0.10;0.10;;;20.40;53.50;;;;;;5003598;28;20411;-52
2023/11/03 01:32:36;;;;;;;0.00;0.00;;;20.40;53.50;;;;;;5011535;28;20232;-54
2023/11/03 01:35:08;;;;;;;0.10;0.10;;;20.40;53.50;;;;;;5012498;28;20195;-52
2023/11/03 01:37:38;;;;;;;0.00;0.00;;;20.40;53.50;;;;;;5012500;28;20216;-57
2023/11/03 01:40:10;;;;;;;0.00;0.00;;;20.40;53.50;;;;;;5012033;28;20189;-58
2023/11/03 01:42:44;;;;;;;0.05;0.05;;;20.40;53.50;;;;;;5015384;28;20719;-58
2023/11/03 01:45:14;;;;;;;0.03;0.03;;;20.40;53.50;;;;;;5010275;28;20192;-58
2023/11/03 01:47:45;;;;;;;0.10;0.10;;;20.50;53.60;;;;;;5011876;28;20193;-58
2023/11/03 01:50:17;;;;;;;0.05;0.05;;;20.40;53.40;;;;;;5011911;28;20228;-57
2023/11/03 01:52:48;;;;;;;0.10;0.10;;;20.50;54.10;;;;;;5012114;28;20197;-58
2023/11/03 01:55:20;;;;;;;0.00;0.00;;;20.50;53.50;;;;;;5012778;28;20209;-58
2023/11/03 01:57:52;;;;;;;0.00;0.00;;;20.50;53.50;;;;;;4992751;28;20290;-58
2023/11/03 02:00:24;;;;;;;0.10;0.10;;;20.50;53.50;;;;;;5010300;28;20282;-51
2023/11/03 02:02:56;;;;;;;0.00;0.00;;;20.50;53.50;;;;;;5012042;28;20795;-48
2023/11/03 02:05:27;;;;;;;0.00;0.00;;;20.50;53.50;;;;;;5012386;28;20236;-56
2023/11/03 02:07:58;;;;;;;0.00;0.00;;;20.50;53.50;;;;;;5011784;28;20197;-53
2023/11/03 02:10:28;;;;;;;0.10;0.10;;;20.50;53.50;;;;;;5011712;28;20213;-58
2023/11/03 02:13:01;;;;;;;0.00;0.00;;;20.50;53.60;;;;;;5022687;28;20208;-58
2023/11/03 02:15:32;;;;;;;0.10;0.10;;;20.50;53.60;;;;;;5011805;28;20209;-59
2023/11/03 02:18:04;;;;;;;0.10;0.10;;;20.60;53.60;;;;;;5012452;28;20708;-57
2023/11/03 02:20:34;;;;;;;0.00;0.00;;;20.60;53.70;;;;;;5011205;28;20213;-57
2023/11/03 02:23:07;;;;;;;0.10;0.10;;;20.60;53.70;;;;;;5012352;28;20205;-56
2023/11/03 02:25:40;;;;;;;0.10;0.10;;;20.60;53.70;;;;;;5011116;28;20192;-57
2023/11/03 02:28:11;;;;;;;0.00;0.00;;;20.60;53.70;;;;;;5011572;28;20283;-57
2023/11/03 02:30:42;;;;;;;0.10;0.10;;;20.60;53.60;;;;;;5012439;28;20685;-56
2023/11/03 02:33:12;;;;;;;0.10;0.10;;;20.70;54.30;;;;;;5011164;28;20208;-58
2023/11/03 02:35:43;;;;;;;0.00;0.00;;;20.70;53.60;;;;;;5011352;28;20197;-57
2023/11/03 02:38:16;;;;;;;0.00;0.00;;;20.60;53.60;;;;;;5010755;28;20264;-58
2023/11/03 02:40:54;;;;;;;0.00;0.00;;;20.70;53.70;;;;;;5010270;28;20300;-52
2023/11/03 02:43:25;;;;;;;0.00;0.00;;;20.70;53.60;;;;;;5009818;28;20664;-58
2023/11/03 02:45:55;;;;;;;0.10;0.10;;;20.70;53.60;;;;;;5010044;28;20195;-58
2023/11/03 02:48:26;;;;;;;0.10;0.10;;;20.70;53.60;;;;;;5010199;28;20204;-57
2023/11/03 02:50:58;;;;;;;0.00;0.00;;;20.70;53.60;;;;;;5010977;28;20296;-58
2023/11/03 02:53:30;;;;;;;0.10;0.10;;;20.70;53.70;;;;;;5010743;28;20228;-52
2023/11/03 02:56:01;;;;;;;0.10;0.10;;;20.70;53.60;;;;;;5010843;28;20197;-54
2023/11/03 02:58:35;;;;;;;0.00;0.00;;;20.70;53.60;;;;;;5009843;28;20220;-58
2023/11/03 03:01:07;;;;;;;0.00;0.00;;;20.70;53.60;;;;;;5023445;28;20222;-57
2023/11/03 03:03:38;;;;;;;0.10;0.10;;;20.70;53.60;;;;;;5029582;28;20250;-52
2023/11/03 03:06:09;;;;;;;0.00;0.00;;;20.70;53.60;;;;;;5015421;28;20254;-50
2023/11/03 03:08:41;;;;;;;0.05;0.05;;;20.70;54.20;;;;;;5016037;28;20192;-56
2023/11/03 03:11:12;;;;;;;0.00;0.00;;;20.80;53.60;;;;;;5009594;28;20213;-58
2023/11/03 03:13:43;;;;;;;0.10;0.10;;;20.80;53.60;;;;;;5013894;28;20260;-57
2023/11/03 03:16:14;;;;;;;0.10;0.10;;;20.70;53.50;;;;;;5028899;28;20202;-58
2023/11/03 03:18:46;;;;;;;0.05;0.05;;;20.80;53.50;;;;;;5030473;28;20635;-58
2023/11/03 03:21:18;;;;;;;0.00;0.00;;;20.70;53.50;;;;;;5011485;28;20267;-58
2023/11/03 03:23:50;;;;;;;0.10;0.10;;;20.80;53.50;;;;;;5010735;28;20255;-51
2023/11/03 03:26:21;;;;;;;0.00;0.00;;;20.70;53.50;;;;;;5010254;28;20255;-53
2023/11/03 03:28:51;;;;;;;0.10;0.10;;;20.80;53.50;;;;;;5011261;28;20207;-59
2023/11/03 03:31:22;;;;;;;0.10;0.10;;;20.80;53.50;;;;;;5027166;28;20245;-56
2023/11/03 03:33:53;;;;;;;0.00;0.00;;;20.80;53.50;;;;;;5031038;28;20249;-53
2023/11/03 03:36:23;;;;;;;0.00;0.00;;;20.80;53.50;;;;;;5016186;28;20196;-56
2023/11/03 03:38:56;;;;;;;0.10;0.10;;;20.80;53.50;;;;;;5010788;28;20224;-58
2023/11/03 03:41:26;;;;;;;0.10;0.10;;;20.80;53.50;;;;;;5011559;28;20468;-58
2023/11/03 03:43:57;;;;;;;0.10;0.10;;;20.80;53.50;;;;;;5011476;28;20196;-59
2023/11/03 03:46:27;;;;;;;0.00;0.00;;;20.80;53.50;;;;;;5011261;28;20201;-65
2023/11/03 03:48:58;;;;;;;0.10;0.10;;;20.80;54.00;;;;;;5011398;28;20457;-57
2023/11/03 03:51:29;;;;;;;0.10;0.10;;;20.80;54.40;;;;;;5011339;28;20216;-57
2023/11/03 03:54:01;;;;;;;0.10;0.10;;;20.80;54.20;;;;;;5011394;28;20200;-56
2023/11/03 03:56:32;;;;;;;0.00;0.00;;;20.90;54.20;;;;;;5011275;28;20204;-56
2023/11/03 03:59:02;;;;;;;0.00;0.00;;;20.90;54.10;;;;;;5011843;28;20625;-49
2023/11/03 04:01:33;;;;;;;0.00;0.00;;;20.90;54.10;;;;;;5028605;28;20707;-48
2023/11/03 04:04:04;;;;;;;0.10;0.10;;;20.90;54.10;;;;;;5031463;28;20192;-50
2023/11/03 04:06:35;;;;;;;0.08;0.08;;;20.90;54.10;;;;;;5031171;28;20271;-57
2023/11/03 04:09:07;;;;;;;0.10;0.10;;;20.90;54.00;;;;;;5030893;28;20232;-57
2023/11/03 04:11:38;;;;;;;0.00;0.00;;;20.90;54.00;;;;;;5030900;28;20212;-57
2023/11/03 04:14:09;;;;;;;0.03;0.03;;;20.90;53.90;;;;;;5031114;28;20208;-56
2023/11/03 04:16:39;;;;;;;0.00;0.00;;;20.90;53.90;;;;;;5031172;28;20564;-56
2023/11/03 04:19:10;;;;;;;0.00;0.00;;;20.90;53.80;;;;;;5031102;28;20228;-53
2023/11/03 04:21:41;;;;;;;0.00;0.00;;;20.90;53.80;;;;;;5030772;28;20219;-56
2023/11/03 04:24:13;;;;;;;0.10;0.10;;;20.90;53.80;;;;;;5030735;28;20199;-56
2023/11/03 04:26:44;;;;;;;0.03;0.03;;;20.90;53.80;;;;;;5030543;28;20196;-56
2023/11/03 04:29:18;;;;;;;0.10;0.10;;;20.80;53.70;;;;;;5030388;28;20208;-51
2023/11/03 04:31:49;;;;;;;0.00;0.00;;;20.90;53.70;;;;;;5053216;23;20232;-54
2023/11/03 04:34:20;;;;;;;0.10;0.10;;;20.90;53.70;;;;;;5012969;28;20658;-57
2023/11/03 04:36:52;;;;;;;0.00;0.00;;;20.90;53.60;;;;;;5014667;28;20617;-51
2023/11/03 04:39:24;;;;;;;0.10;0.10;;;20.90;53.60;;;;;;5014570;28;20652;-56
2023/11/03 04:41:55;;;;;;;0.00;0.00;;;20.80;53.50;;;;;;5014686;28;20221;-56
2023/11/03 04:44:25;;;;;;;0.00;0.00;;;20.90;54.20;;;;;;5014320;28;20575;-55
2023/11/03 04:46:56;;;;;;;0.00;0.00;;;20.80;53.50;;;;;;5014250;28;20228;-56
2023/11/03 04:49:29;;;;;;;0.00;0.00;;;20.80;53.50;;;;;;5014618;28;20208;-54
2023/11/03 04:52:00;;;;;;;0.00;0.00;;;20.80;53.50;;;;;;5014627;28;20223;-54
2023/11/03 04:54:33;;;;;;;0.00;0.00;;;20.80;53.50;;;;;;5014541;28;20204;-50
2023/11/03 04:57:03;;;;;;;0.00;0.00;;;20.80;53.50;;;;;;5014531;28;20239;-49
2023/11/03 04:59:34;;;;;;;0.00;0.00;;;20.80;53.40;;;;;;5014011;28;20209;-56
2023/11/03 05:02:06;;;;;;;0.00;0.00;;;20.80;53.50;;;;;;5014191;28;20312;-51
2023/11/03 05:04:36;;;;;;;0.00;0.00;;;20.80;53.40;;;;;;5014425;28;20197;-54
2023/11/03 05:07:07;;;;;;;0.00;0.00;;;20.80;53.50;;;;;;5014292;28;20335;-48
2023/11/03 05:09:40;;;;;;;0.00;0.00;;;20.80;53.50;;;;;;5014440;28;20607;-55
2023/11/03 05:12:11;;;;;;;0.00;0.00;;;20.80;53.50;;;;;;5026208;28;20700;-55
2023/11/03 05:14:41;;;;;;;0.10;0.10;;;20.80;53.50;;;;;;5033596;28;20656;-55
2023/11/03 05:17:12;;;;;;;0.08;0.08;;;20.80;53.40;;;;;;5032075;28;20196;-54
2023/11/03 05:19:43;;;;;;;0.00;0.00;;;20.80;53.50;;;;;;5012803;28;20205;-46
2023/11/03 05:22:13;;;;;;;0.03;0.03;;;20.80;53.50;;;;;;5014231;28;20229;-49
2023/11/03 05:24:46;;;;;;;0.10;0.10;;;20.80;53.40;;;;;;5014221;28;20201;-53
2023/11/03 05:27:16;;;;;;;0.00;0.00;;;20.80;53.40;;;;;;5014067;28;20192;-53
2023/11/03 05:29:47;;;;;;;0.10;0.10;;;20.80;53.40;;;;;;5013121;28;20205;-47
2023/11/03 05:32:18;;;;;;;0.00;0.00;;;20.80;53.40;;;;;;5013805;28;20244;-47
2023/11/03 05:34:48;;;;;;;0.00;0.00;;;20.80;53.40;;;;;;5013580;28;20201;-49
2023/11/03 05:37:19;;;;;;;0.03;0.03;;;20.80;53.40;;;;;;5013186;28;20197;-46
2023/11/03 05:39:51;;;;;;;0.10;0.10;;;20.80;53.40;;;;;;5023893;28;20193;-53
2023/11/03 05:42:22;;;;;;;0.00;0.00;;;20.80;53.40;;;;;;5033378;28;20212;-48
2023/11/03 05:44:53;;;;;;;0.00;0.00;;;20.80;53.40;;;;;;5033459;28;20199;-50
2023/11/03 05:47:23;;;;;;;0.00;0.00;;;20.80;53.40;;;;;;5033526;28;20279;-49
2023/11/03 05:49:54;;;;;;;0.00;0.00;;;20.80;53.40;;;;;;5033397;28;20236;-49
2023/11/03 05:52:25;;;;;;;0.00;0.00;;;20.80;53.40;;;;;;5033257;28;20220;-53
2023/11/03 05:54:57;;;;;;;0.05;0.05;;;20.70;54.00;;;;;;5033145;28;20228;-50
2023/11/03 05:57:28;;;;;;;0.10;0.10;;;20.70;53.40;;;;;;5033235;28;20655;-50
2023/11/03 05:59:59;;;;;;;0.05;0.05;;;20.70;53.40;;;;;;5028398;28;20205;-51
2023/11/03 06:02:30;;;;;;;0.05;0.05;;;20.70;53.40;;;;;;5013319;28;20723;-50
2023/11/03 06:05:01;;;;;;;0.10;0.10;;;20.70;53.40;;;;;;5013468;28;20193;-47
2023/11/03 06:07:31;;;;;;;0.00;0.00;;;20.70;53.40;;;;;;5013080;28;20200;-49
2023/11/03 06:10:04;;;;;;;0.10;0.10;;;20.70;53.40;;;;;;5012524;28;20201;-50
2023/11/03 06:12:35;;;;;;;0.00;0.00;;;20.70;53.40;;;;;;5003670;28;20256;-51
2023/11/03 06:15:06;;;;;;;0.00;0.00;;;20.70;53.40;;;;;;4992801;28;20206;-49
2023/11/03 06:17:36;;;;;;;0.00;0.00;;;20.70;53.40;;;;;;4992694;28;20201;-52
2023/11/03 06:20:08;;;;;;;0.10;0.10;;;20.70;53.40;;;;;;4992758;28;20268;-51
2023/11/03 06:22:38;;;;;;;0.10;0.10;;;20.70;53.40;;;;;;4992188;28;20225;-53
2023/11/03 06:25:12;;;;;;;0.00;0.00;;;20.70;53.40;;;;;;4993266;28;20661;-54
2023/11/03 06:27:42;;;;;;;0.00;0.00;;;20.70;53.50;;;;;;4993215;28;20206;-54
2023/11/03 06:32:54;;;;;;;0.00;0.00;;;20.70;53.40;;;;;;5030831;28;20282;-54
2023/11/03 06:35:24;;;;;;;0.00;0.00;;;20.70;53.40;;;;;;5032288;28;20203;-57
2023/11/03 06:37:55;;;;;;;0.00;0.00;;;20.70;53.50;;;;;;5031434;28;20246;-57
2023/11/03 06:40:28;;;;;;;0.00;0.00;;;20.70;53.40;;;;;;5031721;28;20253;-56
2023/11/03 06:42:59;;;;;;;0.00;0.00;;;20.60;53.40;;;;;;5031637;28;20262;-56
2023/11/03 06:45:29;;;;;;;0.00;0.00;;;20.70;53.50;;;;;;5031685;28;20203;-57
2023/11/03 06:48:01;;;;;;;0.05;0.05;;;20.60;53.50;;;;;;5031944;28;20564;-57
2023/11/03 06:50:31;;;;;;;0.00;0.00;;;20.60;53.40;;;;;;5031390;28;20683;-57
2023/11/03 06:53:02;;;;;;;0.00;0.00;;;20.60;53.40;;;;;;5030924;28;20196;-58
2023/11/03 06:55:35;;;;;;;0.10;0.10;;;20.60;53.50;;;;;;5031463;28;20675;-58
2023/11/03 06:58:05;;;;;;;0.00;0.00;;;20.60;53.50;;;;;;5030668;28;20188;-57
2023/11/03 07:00:37;;;;;;;0.00;0.00;;;20.60;53.40;;;;;;5031972;28;20207;-55
2023/11/03 07:03:07;;;;;;;0.00;0.00;;;20.60;53.50;;;;;;5032193;28;20202;-54
2023/11/03 07:05:38;;;;;;;0.05;0.05;;;20.60;53.40;;;;;;5031894;28;20196;-56
2023/11/03 07:08:09;;;;;;;0.00;0.00;;;20.60;53.40;;;;;;5042093;28;20253;-57
2023/11/03 07:10:44;;;;;;;0.00;0.00;;;20.60;53.50;;;;;;5039806;28;20215;-56
2023/11/03 07:13:15;;;;;;;0.00;0.00;;;20.60;53.40;;;;;;5051869;28;20195;-57
2023/11/03 07:15:45;;;;;;;0.00;0.00;;;20.60;53.40;;;;;;5051705;28;20207;-57
2023/11/03 07:18:16;;;;;;;0.10;0.10;;;20.60;53.40;;;;;;5051325;28;20219;-58
2023/11/03 07:20:47;;;;;;;0.00;0.00;;;20.60;53.40;;;;;;5033219;28;20220;-56
2023/11/03 07:23:21;;;;;;;0.00;0.00;;;20.60;53.40;;;;;;5031363;28;20202;-50
2023/11/03 07:25:56;;;;;;;0.00;0.00;;;20.60;53.40;;;;;;5031972;28;20199;-51
2023/11/03 07:28:26;;;;;;;0.00;0.00;;;20.50;53.30;;;;;;5031475;28;20238;-51
2023/11/03 07:30:57;;;;;;;0.00;0.00;;;20.50;53.40;;;;;;5050768;23;20232;-52
2023/11/03 07:33:28;;;;;;;0.03;0.03;;;20.50;53.30;;;;;;5012161;28;20262;-55
2023/11/03 07:35:59;;;;;;;0.00;0.00;;;20.50;53.40;;;;;;5011205;28;20576;-55
2023/11/03 07:38:31;;;;;;;0.10;0.10;;;20.50;53.40;;;;;;5011619;28;20235;-50
2023/11/03 07:41:03;;;;;;;0.10;0.10;;;20.50;53.40;;;;;;5011567;28;20213;-56
2023/11/03 07:43:34;;;;;;;0.00;0.00;;;20.50;53.50;;;;;;5011715;28;20275;-56
2023/11/03 07:46:05;;;;;;;0.00;0.00;;;20.50;53.40;;;;;;5011311;28;20561;-55
2023/11/03 07:48:36;;;;;;;0.00;0.00;;;20.50;53.40;;;;;;5011584;28;20215;-52
2023/11/03 07:51:07;;;;;;;0.10;0.10;;;20.50;53.50;;;;;;5010872;28;20609;-55
2023/11/03 07:53:37;;;;;;;0.00;0.00;;;20.50;53.40;;;;;;5011434;28;20668;-52
2023/11/03 07:56:11;;;;;;;0.03;0.03;;;20.50;53.50;;;;;;5011151;28;20205;-57
2023/11/03 07:58:41;;;;;;;0.10;0.10;;;20.50;53.50;;;;;;5011541;28;20220;-56
2023/11/03 08:01:13;;;;;;;0.10;0.10;;;20.40;53.40;;;;;;5011617;28;20225;-53
2023/11/03 08:03:43;;;;;;;0.10;0.10;;;20.50;53.40;;;;;;5011152;28;20201;-51
2023/11/03 08:06:14;;;;;;;0.03;0.03;;;20.40;53.30;;;;;;5010594;28;20204;-52
2023/11/03 08:08:44;;;;;;;0.10;0.10;;;20.40;53.40;;;;;;5011758;28;20201;-56
2023/11/03 08:11:17;;;;;;;0.05;0.05;;;20.40;53.40;;;;;;5014621;28;20217;-55
2023/11/03 08:13:48;;;;;;;0.00;0.00;;;20.40;53.30;;;;;;5015301;28;20207;-52
2023/11/03 08:16:18;;;;;;;0.00;0.00;;;20.40;53.30;;;;;;5014944;28;20255;-56
2023/11/03 08:18:49;;;;;;;0.00;0.00;;;20.40;53.30;;;;;;5014770;28;20224;-54
2023/11/03 08:21:20;;;;;;;0.08;0.08;;;20.40;53.30;;;;;;5014346;28;20221;-54
2023/11/03 08:23:51;;;;;;;0.00;0.00;;;20.40;53.40;;;;;;5009755;28;20276;-54
2023/11/03 08:26:24;;;;;;;0.00;0.00;;;20.40;53.40;;;;;;5012949;28;20232;-53
2023/11/03 08:28:54;;;;;;;0.00;0.00;;;20.40;53.40;;;;;;5014798;28;20193;-53
2023/11/03 08:31:25;;;;;;;0.10;0.10;;;20.40;53.40;;;;;;5043785;23;20240;-57
2023/11/03 08:33:55;;;;;;;0.10;0.10;;;20.40;53.40;;;;;;5013538;28;20196;-57
2023/11/03 08:36:26;;;;;;;0.00;0.00;;;20.40;53.30;;;;;;5012601;28;20193;-57
2023/11/03 08:38:57;;;;;;;0.10;0.10;;;20.40;53.30;;;;;;5014007;28;20235;-57
2023/11/03 08:41:29;;;;;;;0.00;0.00;;;20.40;53.30;;;;;;5013700;28;20217;-57
2023/11/03 08:44:00;;;;;;;0.00;0.00;;;20.40;53.30;;;;;;5020930;28;20192;-57
2023/11/03 08:46:30;;;;;;;0.00;0.00;;;20.30;53.20;;;;;;5033635;28;20628;-58
2023/11/03 08:49:01;;;;;;;0.00;0.00;;;20.30;53.20;;;;;;5023630;28;20204;-57
2023/11/03 08:51:32;;;;;;;0.00;0.00;;;20.30;53.20;;;;;;5014306;28;20220;-57
2023/11/03 08:54:03;;;;;;;0.00;0.00;;;20.30;53.20;;;;;;5013568;28;20563;-53
2023/11/03 08:56:35;;;;;;;0.00;0.00;;;20.30;53.20;;;;;;5014148;28;20232;-56
2023/11/03 08:59:06;;;;;;;0.00;0.00;;;20.30;53.20;;;;;;5014098;28;20588;-58
2023/11/03 09:01:36;;;;;;;0.00;0.00;;;20.30;53.20;;;;;;5014385;28;20225;-57
2023/11/03 09:04:07;;;;;;;0.00;0.00;;;20.30;53.20;;;;;;5014303;28;20193;-58
2023/11/03 09:06:38;;;;;;;0.10;0.10;;;20.20;53.20;;;;;;5026789;28;20656;-54
2023/11/03 09:09:09;;;;;;;0.00;0.00;;;20.20;53.20;;;;;;5033779;28;20211;-58
2023/11/03 09:11:42;;;;;;;0.00;0.00;;;20.20;53.20;;;;;;5033713;28;20216;-58
2023/11/03 09:14:13;;;;;;;0.00;0.00;;;20.20;53.20;;;;;;5033932;28;20223;-58
2023/11/03 09:16:43;;;;;;;0.00;0.00;;;20.20;53.20;;;;;;5020228;28;20331;-57
2023/11/03 09:19:14;;;;;;;0.00;0.00;;;20.20;53.20;;;;;;5013854;28;20759;-58
2023/11/03 09:21:44;;;;;;;0.10;0.10;;;20.20;53.20;;;;;;5012832;28;20217;-57
2023/11/03 09:24:15;;;;;;;0.00;0.00;;;20.20;53.20;;;;;;5013876;28;20542;-58
2023/11/03 09:26:48;;;;;;;0.10;0.10;;;20.10;53.20;;;;;;5013720;28;20197;-57
2023/11/03 09:29:19;;;;;;;0.10;0.10;;;20.20;53.20;;;;;;5028735;28;20192;-58
2023/11/03 09:31:50;;;;;;;0.10;0.10;;;20.20;53.20;;;;;;5014401;28;20306;-56
2023/11/03 09:34:21;;;;;;;0.00;0.00;;;20.20;53.20;;;;;;5014053;28;20287;-58
2023/11/03 09:36:52;;;;;;;0.10;0.10;;;20.10;53.20;;;;;;5013907;28;20263;-58
2023/11/03 09:39:22;;;;;;;0.00;0.00;;;20.10;53.10;;;;;;5013877;28;20236;-58
2023/11/03 09:42:03;;;;;;;0.05;0.05;;;20.10;53.10;;;;;;5013244;28;20715;-57
2023/11/03 09:44:35;;;;;;;0.00;0.00;;;20.10;53.10;;;;;;5013565;28;20223;-58
2023/11/03 09:47:06;;;;;;;0.10;0.10;;;20.10;53.10;;;;;;5013473;28;20197;-58
2023/11/03 09:49:37;;;;;;;0.10;0.10;;;20.10;53.10;;;;;;5013436;28;20251;-55
2023/11/03 09:52:10;;;;;;;0.10;0.10;;;20.10;53.20;;;;;;5013328;28;20221;-58
2023/11/03 09:54:41;;;;;;;0.00;0.00;;;20.10;53.20;;;;;;5013507;28;20331;-57
2023/11/03 09:57:14;;;;;;;0.10;0.10;;;20.10;53.20;;;;;;5013603;28;20676;-58
2023/11/03 09:59:45;;;;;;;0.10;0.10;;;20.00;53.20;;;;;;5013332;28;20629;-57
2023/11/03 10:02:20;;;;;;;0.10;0.10;;;20.10;53.30;;;;;;5013419;28;20229;-58
2023/11/03 10:04:51;;;;;;;0.00;0.00;;;20.00;53.20;;;;;;5013039;28;20228;-57
2023/11/03 10:07:21;;;;;;;0.03;0.03;;;20.00;53.20;;;;;;5012718;28;20204;-58
2023/11/03 10:09:52;;;;;;;0.10;0.10;;;20.00;53.20;;;;;;5013156;28;20243;-58
2023/11/03 10:12:25;;;;;;;0.10;0.10;;;20.00;53.20;;;;;;5012794;28;20216;-57
2023/11/03 10:14:56;;;;;;;0.10;0.10;;;20.00;53.20;;;;;;5012753;28;20291;-56
2023/11/03 10:17:26;;;;;;;0.00;0.00;;;20.00;53.20;;;;;;5012464;28;20328;-57
2023/11/03 10:19:58;;;;;;;0.00;0.00;;;20.00;53.20;;;;;;5012590;28;20282;-58
2023/11/03 10:22:29;;;;;;;0.00;0.00;;;20.00;53.10;;;;;;5012734;28;20221;-58
2023/11/03 10:25:00;;;;;;;0.00;0.00;;;20.00;53.20;;;;;;5012990;28;20246;-58
2023/11/03 10:27:33;;;;;;;0.00;0.00;;;20.00;53.10;;;;;;5012949;28;20671;-58
2023/11/03 10:30:07;;;;;;;0.00;0.00;;;20.00;53.10;;;;;;5012379;28;20232;-56
2023/11/03 10:32:37;;;;;;;0.10;0.10;;;20.00;53.20;;;;;;5012679;28;20264;-59
2023/11/03 10:35:09;;;;;;;0.00;0.00;;;19.90;53.10;;;;;;5012723;28;20211;-58
2023/11/03 10:37:41;;;;;;;0.10;0.10;;;19.90;53.20;;;;;;5012661;28;20200;-55
2023/11/03 10:40:13;;;;;;;0.10;0.10;;;19.90;53.20;;;;;;5012493;28;20225;-57
2023/11/03 10:42:50;;;;;;;0.05;0.05;;;19.90;53.20;;;;;;5012221;28;20308;-58
2023/11/03 10:45:21;;;;;;;0.05;0.05;;;19.90;53.20;;;;;;5012002;28;20570;-58
2023/11/03 10:48:05;;;;;;;0.00;0.00;;;19.90;53.20;;;;;;5011933;28;20208;-58
2023/11/03 10:50:37;;;;;;;0.03;0.03;;;19.90;53.20;;;;;;5012352;28;20200;-58
2023/11/03 10:53:19;;;;;;;0.10;0.10;;;19.90;53.80;;;;;;5012516;28;20197;-59
2023/11/03 10:55:54;;;;;;;0.10;0.10;;;19.90;53.20;;;;;;5012285;28;20228;-58
2023/11/03 10:58:27;;;;;;;0.00;0.00;;;19.90;53.20;;;;;;5023429;28;20231;-58
2023/11/03 11:01:06;;;;;;;0.00;0.00;;;19.90;53.20;;;;;;5019361;28;20316;-58
2023/11/03 11:03:45;;;;;;;0.10;0.10;;;19.80;53.10;;;;;;5012334;28;20192;-58
2023/11/03 11:06:23;;;;;;;0.08;0.08;;;19.80;53.10;;;;;;5019148;28;20230;-59
2023/11/03 11:09:00;;;;;;;0.03;0.03;;;19.80;53.10;;;;;;5031839;28;20200;-57
2023/11/03 11:11:31;;;;;;;0.10;0.10;;;19.80;53.10;;;;;;5031656;28;20226;-58
2023/11/03 11:14:21;;;;;;;0.08;0.08;;;19.80;53.10;;;;;;5031798;28;20207;-58
2023/11/03 11:16:56;;;;;;;0.10;0.10;;;19.80;53.10;;;;;;5031585;28;20192;-58
2023/11/03 11:19:34;;;;;;;0.00;0.00;;;19.80;53.10;;;;;;5019337;28;20208;-59
2023/11/03 11:22:08;;;;;;;0.00;0.00;;;19.80;53.20;;;;;;5011767;28;20253;-57
2023/11/03 11:24:40;;;;;;;0.10;0.10;;;19.80;53.20;;;;;;5011699;28;20236;-59
2023/11/03 11:27:28;;;;;;;0.00;0.00;;;19.80;53.20;;;;;;5011954;28;20201;-59
2023/11/03 11:30:14;;;;;;;0.10;0.10;;;19.80;53.30;;;;;;5015497;28;20704;-58
2023/11/03 11:32:52;;;;;;;0.10;0.10;;;19.80;53.30;;;;;;5032025;23;20327;-56
2023/11/03 11:35:26;;;;;;;0.00;0.00;;;19.80;53.80;;;;;;5011467;28;20283;-54
2023/11/03 11:37:56;;;;;;;0.00;0.00;;;19.80;53.20;;;;;;5010997;28;20203;-55
2023/11/03 11:40:27;;;;;;;0.00;0.00;;;19.80;53.20;;;;;;5011382;28;20228;-54
2023/11/03 11:43:02;;;;;;;0.03;0.03;;;19.70;53.10;;;;;;5011627;28;20221;-54
2023/11/03 11:45:35;;;;;;;0.00;0.00;;;19.70;53.10;;;;;;5015430;28;20192;-48
2023/11/03 11:48:09;;;;;;;0.00;0.00;;;19.70;53.10;;;;;;5015268;28;20195;-54
2023/11/03 11:50:46;;;;;;;0.00;0.00;;;19.70;53.10;;;;;;5015079;28;20258;-54
2023/11/03 11:53:16;;;;;;;0.10;0.10;;;19.70;53.10;;;;;;5015418;28;20661;-56
2023/11/03 11:55:47;;;;;;;0.10;0.10;;;19.70;53.10;;;;;;5015521;28;20208;-55
2023/11/03 11:58:18;;;;;;;0.05;0.05;;;19.70;53.10;;;;;;5015647;28;20536;-57
2023/11/03 12:00:51;;;;;;;0.00;0.00;;;19.70;53.10;;;;;;5015157;28;20228;-50
2023/11/03 12:03:22;;;;;;;0.00;0.00;;;19.70;53.10;;;;;;5015498;28;20223;-55
2023/11/03 12:05:52;;;;;;;0.10;0.10;;;19.70;53.20;;;;;;5015383;28;20711;-53
2023/11/03 12:08:23;;;;;;;0.00;0.00;;;19.70;53.10;;;;;;5015365;28;20255;-56
2023/11/03 12:10:54;;;;;;;0.00;0.00;;;19.70;53.70;;;;;;5014967;28;20291;-55
2023/11/03 12:13:24;;;;;;;0.00;0.00;;;19.70;53.10;;;;;;5015218;28;20207;-57
2023/11/03 12:15:57;;;;;;;0.00;0.00;;;19.70;53.20;;;;;;5015358;28;20200;-56
2023/11/03 12:18:28;;;;;;;0.00;0.00;;;19.70;53.20;;;;;;5015320;28;20580;-55
2023/11/03 12:21:04;;;;;;;0.10;0.10;;;19.60;53.10;;;;;;5014899;28;20232;-54
2023/11/03 12:23:35;;;;;;;0.10;0.10;;;19.60;53.10;;;;;;5014951;28;20200;-54
2023/11/03 12:26:07;;;;;;;0.00;0.00;;;19.70;53.10;;;;;;5014701;28;20196;-56
2023/11/03 12:28:40;;;;;;;0.00;0.00;;;19.60;53.10;;;;;;5014781;28;20211;-51
2023/11/03 12:31:13;;;;;;;0.10;0.10;;;19.60;53.10;;;;;;5031087;23;20233;-56
2023/11/03 12:33:44;;;;;;;0.05;0.05;;;19.60;53.00;;;;;;5014795;28;20653;-58
2023/11/03 12:36:15;;;;;;;0.08;0.08;;;19.60;53.00;;;;;;5014876;28;20657;-58
2023/11/03 12:38:46;;;;;;;0.00;0.00;;;19.60;53.60;;;;;;5014813;28;20300;-58
2023/11/03 12:41:19;;;;;;;0.00;0.00;;;19.60;53.00;;;;;;5014544;28;20228;-57
2023/11/03 12:44:06;;;;;;;0.00;0.00;;;19.60;53.10;;;;;;5014792;28;20283;-58
2023/11/03 12:46:49;;;;;;;0.03;0.03;;;19.60;53.00;;;;;;5014749;28;20263;-58
2023/11/03 12:49:23;;;;;;;0.10;0.10;;;19.60;53.10;;;;;;5014860;28;20201;-58
2023/11/03 12:51:54;;;;;;;0.10;0.10;;;19.60;53.10;;;;;;5014697;28;20299;-53
2023/11/03 12:54:25;;;;;;;0.10;0.10;;;19.60;53.10;;;;;;5014104;28;20215;-58
2023/11/03 12:56:56;;;;;;;0.00;0.00;;;19.50;53.10;;;;;;5012210;28;20657;-58
2023/11/03 12:59:27;;;;;;;0.03;0.03;;;19.50;53.20;;;;;;5014854;28;20204;-59
2023/11/03 13:01:59;;;;;;;0.03;0.03;;;19.50;53.20;;;;;;5014231;28;20312;-58
2023/11/03 13:04:30;;;;;;;0.10;0.10;;;19.50;53.20;;;;;;5014395;28;20201;-57
2023/11/03 13:07:01;;;;;;;0.10;0.10;;;19.50;53.10;;;;;;5015144;28;20883;-54
2023/11/03 13:09:31;;;;;;;0.10;0.10;;;19.60;53.20;;;;;;5034115;28;20192;-58
2023/11/03 13:12:04;;;;;;;0.10;0.10;;;19.60;53.20;;;;;;5033696;28;20216;-56
2023/11/03 13:14:35;;;;;;;0.00;0.00;;;19.50;53.10;;;;;;5033731;28;20200;-56
2023/11/03 13:17:10;;;;;;;0.00;0.00;;;19.50;53.10;;;;;;5033957;28;20196;-55